Tustin, Wisconsin
Current Conditions -  °F | °C
As of 12:55 PM on Thursday 30 Oct 2014 (Local Time) from KPCZ Reporting Station
Broken Clouds Broken Clouds  
Wind Chill: 47°   Ceiling: 8000
Heat Index: 49°   Visibility: 10mi
Dew Point: 35°   Wind: 6mph
Humidity: 59%   Direction: 240°WSW
Pressure: 30.06"   Gusts: NA
Location:  44.2033°N, 88.9001°W
Report Text: KPCZ 301755Z AUTO 24005KT 10SM SCT032 BKN080 10/02 A3006 RMK AO2 T00950018 10100 20012
Loading
Personal Weather Stations






























Interactive Weather Map
Tropical Storm Tracking
New forecast layout! Learn more

10-Day Weather Forecast

Advertisements
Track Severe Weather on mobile